Time;durP1;ratioP1;P1;durP2;ratioP2;P2;SDS_P1;SDS_P2;PMS_P1;PMS_P2;Temp;Humidity;BMP_temperature;BMP_pressure;BME280_temperature;BME280_humidity;BME280_pressure;Samples;Min_cycle;Max_cycle;Signal;HPM_P1;HPM_P2
2022/02/07 08:26:42;;;;;;;1.67;1.30;;;19.10;67.20;;;;;;5101208;27;20648;-87
2022/02/07 08:29:11;;;;;;;1.57;1.07;;;19.50;66.30;;;;;;5111039;28;20446;-88
2022/02/07 08:31:38;;;;;;;1.85;1.48;;;20.30;64.90;;;;;;5110558;28;20429;-91
2022/02/07 08:34:04;;;;;;;3.50;1.10;;;20.70;63.40;;;;;;5110956;28;20192;-82
2022/02/07 08:36:32;;;;;;;2.87;1.37;;;21.10;62.60;;;;;;5106345;28;20684;-85
2022/02/07 08:38:59;;;;;;;1.90;1.10;;;21.30;62.00;;;;;;5096072;28;20771;-86
2022/02/07 08:41:28;;;;;;;2.05;1.10;;;21.40;61.50;;;;;;5109926;28;20439;-85
2022/02/07 08:43:57;;;;;;;1.33;1.00;;;21.60;61.50;;;;;;5101338;28;20195;-81
2022/02/07 08:46:24;;;;;;;1.90;1.20;;;21.60;61.10;;;;;;5111163;28;20479;-82
2022/02/07 08:48:51;;;;;;;1.77;1.27;;;21.70;61.00;;;;;;5111194;28;20936;-83
2022/02/07 08:51:19;;;;;;;1.53;1.20;;;21.70;60.90;;;;;;5114609;28;20435;-83
2022/02/07 08:53:48;;;;;;;20.90;19.27;;;21.70;60.70;;;;;;5116100;28;20945;-92
2022/02/07 08:56:16;;;;;;;18.27;16.97;;;21.80;60.90;;;;;;5116040;28;20463;-96
2022/02/07 08:58:45;;;;;;;17.10;15.73;;;21.80;60.90;;;;;;5114070;28;20469;-84
2022/02/07 09:01:18;;;;;;;14.07;12.97;;;21.80;60.90;;;;;;5126577;28;20497;-96
2022/02/07 09:06:35;;;;;;;15.03;13.43;;;21.80;60.90;;;;;;5090092;28;20919;-93
2022/02/07 09:09:16;;;;;;;13.30;11.23;;;21.80;60.80;;;;;;5116965;28;20442;-89
2022/02/07 09:11:43;;;;;;;11.50;10.60;;;21.80;60.70;;;;;;5110443;28;20445;-91
2022/02/07 09:14:12;;;;;;;8.30;7.07;;;21.80;60.70;;;;;;5111730;28;20762;-96
2022/02/07 09:19:06;;;;;;;51.97;43.50;;;21.90;59.90;;;;;;5042477;22;20573;-94
2022/02/07 09:21:33;;;;;;;29.70;26.80;;;21.90;60.30;;;;;;5030419;28;20196;-88
2022/02/07 09:24:00;;;;;;;26.67;21.20;;;21.90;60.40;;;;;;5018278;28;20451;-93
2022/02/07 09:26:27;;;;;;;35.22;30.75;;;22.00;60.20;;;;;;5024652;28;20511;-96
2022/02/07 09:34:02;;;;;;;28.60;23.23;;;22.10;60.10;;;;;;5070918;28;20811;-92
2022/02/07 09:36:30;;;;;;;26.77;23.93;;;22.20;60.10;;;;;;5066369;28;20475;-95
2022/02/07 09:39:12;;;;;;;25.20;22.70;;;22.20;61.00;;;;;;5045928;28;20448;-85
2022/02/07 09:41:40;;;;;;;22.80;20.60;;;22.20;60.30;;;;;;5059785;28;20943;-83
2022/02/07 09:44:08;;;;;;;22.77;20.40;;;22.20;60.20;;;;;;5055865;28;20437;-91
2022/02/07 09:46:47;;;;;;;20.53;18.37;;;22.20;60.20;;;;;;5056032;28;20485;-91
2022/02/07 09:49:18;;;;;;;20.10;18.30;;;22.20;60.40;;;;;;5056208;28;20430;-84
2022/02/07 09:51:48;;;;;;;20.23;18.33;;;22.20;60.60;;;;;;5056175;28;20497;-85
2022/02/07 09:54:20;;;;;;;19.73;17.73;;;22.20;60.70;;;;;;5055661;28;20441;-87
2022/02/07 09:56:49;;;;;;;18.10;16.30;;;22.30;60.90;;;;;;5055983;28;20447;-89
2022/02/07 09:59:17;;;;;;;16.60;14.90;;;22.30;61.20;;;;;;5055921;28;20449;-89
2022/02/07 10:01:49;;;;;;;18.30;16.60;;;22.40;61.40;;;;;;5055613;28;20499;-86
2022/02/07 10:04:24;;;;;;;17.93;15.67;;;22.40;61.10;;;;;;5055368;28;20936;-88
2022/02/07 10:07:00;;;;;;;13.70;12.47;;;22.40;61.30;;;;;;5055270;28;20494;-89
2022/02/07 10:09:58;;;;;;;14.13;12.93;;;22.40;61.20;;;;;;5055421;28;20806;-85
2022/02/07 10:12:32;;;;;;;12.70;11.60;;;22.40;61.30;;;;;;5055293;28;20450;-90
2022/02/07 10:17:59;;;;;;;13.90;12.50;;;22.50;61.60;;;;;;5048084;28;20456;-87
2022/02/07 10:21:09;;;;;;;12.83;11.60;;;22.50;61.60;;;;;;5055209;28;20452;-87
2022/02/07 10:37:58;;;;;;;21.50;11.07;;;22.60;62.00;;;;;;5041908;28;20430;-87
2022/02/07 10:40:32;;;;;;;12.70;9.60;;;22.60;62.20;;;;;;5054996;28;20449;-87
2022/02/07 10:43:30;;;;;;;9.90;8.90;;;22.60;62.00;;;;;;5054812;28;21009;-87
2022/02/07 10:46:03;;;;;;;9.73;8.60;;;22.60;61.80;;;;;;5054708;28;20485;-84
2022/02/07 10:48:36;;;;;;;9.43;8.60;;;22.70;61.70;;;;;;5053727;28;20433;-87
2022/02/07 10:51:11;;;;;;;9.47;8.57;;;22.80;61.50;;;;;;5054772;28;20195;-88
2022/02/07 10:53:40;;;;;;;9.40;8.60;;;22.80;61.20;;;;;;5054520;28;20430;-85
2022/02/07 10:56:10;;;;;;;9.77;8.20;;;22.90;61.40;;;;;;5064244;28;20206;-85
2022/02/07 10:58:38;;;;;;;9.63;8.73;;;22.90;61.20;;;;;;5060443;28;20435;-85
2022/02/07 11:01:11;;;;;;;9.20;8.20;;;22.90;61.20;;;;;;5054491;28;20866;-85
2022/02/07 11:03:42;;;;;;;9.13;7.83;;;22.90;61.20;;;;;;5054346;28;20453;-85
2022/02/07 11:06:12;;;;;;;9.50;7.77;;;22.90;61.20;;;;;;5054425;28;20528;-89
2022/02/07 11:09:03;;;;;;;8.18;7.22;;;22.90;61.40;;;;;;5054467;28;20418;-89
2022/02/07 11:17:22;;;;;;;6.90;6.20;;;22.90;61.10;;;;;;5052672;28;20195;-88
2022/02/07 11:20:00;;;;;;;8.75;6.55;;;22.90;61.10;;;;;;5054658;28;20434;-88
2022/02/07 11:22:42;;;;;;;7.70;6.17;;;22.90;61.20;;;;;;5054569;28;20198;-87
2022/02/07 11:25:24;;;;;;;6.53;5.70;;;23.10;61.50;;;;;;5053802;28;20449;-89
2022/02/07 11:27:56;;;;;;;6.18;5.57;;;23.10;61.50;;;;;;5054067;28;20436;-85
2022/02/07 11:30:46;;;;;;;6.10;5.20;;;23.20;61.60;;;;;;5054045;28;20246;-89
2022/02/07 11:33:33;;;;;;;6.63;5.17;;;23.20;61.40;;;;;;5055751;28;20479;-86
2022/02/07 11:36:00;;;;;;;15.30;13.90;;;23.30;61.90;;;;;;5057543;28;20463;-87
2022/02/07 11:38:28;;;;;;;12.77;11.67;;;23.20;62.40;;;;;;5057773;28;20446;-87
2022/02/07 11:41:01;;;;;;;14.33;11.80;;;23.30;62.10;;;;;;5056773;28;20443;-87
2022/02/07 11:43:31;;;;;;;10.53;9.53;;;23.30;62.00;;;;;;5056978;28;20476;-87
2022/02/07 11:45:59;;;;;;;12.13;10.97;;;23.30;62.10;;;;;;5056958;28;20477;-87
2022/02/07 11:48:38;;;;;;;21.23;12.80;;;23.30;62.10;;;;;;5056214;28;20473;-87
2022/02/07 11:51:11;;;;;;;14.07;12.67;;;23.30;62.80;;;;;;5053732;28;20446;-86
2022/02/07 11:53:44;;;;;;;13.60;12.40;;;23.30;63.90;;;;;;5053274;28;20445;-86
2022/02/07 11:56:18;;;;;;;13.20;12.00;;;23.30;63.70;;;;;;5053368;28;20478;-86
2022/02/07 11:58:53;;;;;;;13.77;12.47;;;23.30;64.30;;;;;;5053477;28;20473;-86
2022/02/07 12:01:44;;;;;;;13.93;12.47;;;23.30;63.30;;;;;;5053351;28;20496;-86
2022/02/07 12:04:12;;;;;;;13.83;12.50;;;23.20;63.20;;;;;;5053337;28;20848;-86
2022/02/07 12:06:38;;;;;;;11.70;10.60;;;23.20;63.40;;;;;;5053223;28;20494;-86
2022/02/07 12:09:19;;;;;;;13.33;11.90;;;23.20;63.50;;;;;;5053444;28;20441;-86
2022/02/07 12:11:47;;;;;;;12.33;11.30;;;23.10;63.40;;;;;;5053521;28;20932;-85
2022/02/07 12:14:29;;;;;;;11.53;10.53;;;23.10;63.60;;;;;;5053186;28;20443;-86
2022/02/07 12:16:56;;;;;;;11.47;10.47;;;23.10;63.50;;;;;;5053101;28;20443;-86
2022/02/07 12:19:36;;;;;;;11.20;10.20;;;23.00;63.40;;;;;;5053039;28;20445;-86
2022/02/07 12:22:15;;;;;;;11.20;10.20;;;23.00;63.40;;;;;;5053086;28;20449;-86
2022/02/07 12:24:56;;;;;;;11.93;10.83;;;23.00;63.60;;;;;;5052928;28;20463;-86
2022/02/07 12:27:24;;;;;;;11.17;10.23;;;23.00;63.60;;;;;;5053165;28;20497;-86
2022/02/07 12:30:16;;;;;;;10.37;9.40;;;23.00;63.60;;;;;;5052963;28;20873;-86
2022/02/07 12:32:43;;;;;;;12.10;9.67;;;22.90;63.40;;;;;;5052738;28;20474;-86
2022/02/07 12:35:12;;;;;;;10.97;9.70;;;22.90;63.40;;;;;;5052963;28;20861;-86
2022/02/07 12:37:41;;;;;;;10.63;9.60;;;22.90;63.30;;;;;;5052845;28;20859;-86
2022/02/07 12:40:10;;;;;;;10.37;9.37;;;22.90;63.40;;;;;;5053377;28;20446;-86
2022/02/07 12:42:39;;;;;;;15.80;10.23;;;22.90;63.50;;;;;;5052910;28;20445;-86
2022/02/07 12:45:07;;;;;;;9.10;8.23;;;22.90;63.70;;;;;;5052817;28;20438;-87
2022/02/07 12:47:37;;;;;;;14.10;9.73;;;22.90;63.80;;;;;;5052715;28;20491;-86
2022/02/07 12:50:09;;;;;;;10.37;9.37;;;22.90;64.10;;;;;;5052849;28;20468;-87
2022/02/07 12:52:38;;;;;;;14.50;9.10;;;22.90;64.20;;;;;;5052769;28;20453;-87
2022/02/07 12:55:06;;;;;;;9.80;8.90;;;22.90;64.20;;;;;;5053110;28;20458;-86
2022/02/07 12:57:38;;;;;;;9.20;8.30;;;22.90;64.10;;;;;;5052793;28;20449;-86
2022/02/07 13:00:06;;;;;;;8.90;8.03;;;22.90;64.20;;;;;;5052845;28;21311;-87
2022/02/07 13:02:33;;;;;;;9.13;7.77;;;22.90;64.30;;;;;;5052499;28;20449;-87
2022/02/07 13:05:00;;;;;;;9.80;7.50;;;22.90;64.20;;;;;;5052729;28;20466;-87
2022/02/07 13:07:34;;;;;;;8.87;7.97;;;23.00;64.10;;;;;;5052891;28;20577;-86
2022/02/07 13:10:05;;;;;;;10.30;8.13;;;23.00;64.00;;;;;;5052086;28;20517;-86
2022/02/07 13:12:50;;;;;;;9.17;7.47;;;23.10;64.20;;;;;;5045553;28;20446;-86
2022/02/07 13:15:22;;;;;;;10.13;8.43;;;23.10;64.20;;;;;;5056613;28;20814;-86
2022/02/07 13:17:53;;;;;;;16.03;8.20;;;23.10;64.70;;;;;;5056662;28;20489;-88
2022/02/07 13:20:21;;;;;;;8.70;7.40;;;23.10;64.80;;;;;;5056591;28;20856;-85
2022/02/07 13:22:48;;;;;;;16.52;7.68;;;23.10;64.60;;;;;;5056346;28;20528;-88
2022/02/07 13:25:17;;;;;;;13.13;8.20;;;23.00;62.60;;;;;;5056344;28;20207;-86
2022/02/07 13:27:43;;;;;;;11.53;8.07;;;23.00;63.80;;;;;;5056583;28;20493;-89
2022/02/07 13:30:11;;;;;;;16.97;7.47;;;;;;;;;;5056612;28;20447;-88
2022/02/07 13:32:41;;;;;;;15.13;7.17;;;23.10;67.50;;;;;;5056116;28;20841;-88
2022/02/07 13:35:10;;;;;;;8.50;6.60;;;23.10;66.80;;;;;;5056200;28;21020;-87
2022/02/07 13:37:39;;;;;;;12.53;7.13;;;23.10;64.90;;;;;;5056177;28;20479;-89
2022/02/07 13:40:09;;;;;;;8.40;6.50;;;23.20;64.70;;;;;;5056240;28;20928;-87
2022/02/07 13:42:39;;;;;;;7.47;6.63;;;23.20;64.40;;;;;;5055859;28;20539;-88
2022/02/07 13:45:09;;;;;;;6.87;5.10;;;23.20;64.30;;;;;;5055760;28;20932;-87
2022/02/07 13:47:38;;;;;;;13.87;12.57;;;23.20;64.40;;;;;;5055674;28;20492;-88
2022/02/07 13:50:08;;;;;;;19.43;12.30;;;23.20;64.10;;;;;;5050869;28;20452;-88
2022/02/07 13:52:37;;;;;;;14.30;11.80;;;23.20;64.10;;;;;;5035840;28;20447;-83
2022/02/07 13:55:16;;;;;;;14.20;11.30;;;23.20;64.20;;;;;;5036063;28;20439;-89
2022/02/07 13:57:52;;;;;;;14.02;11.50;;;23.20;64.10;;;;;;5036253;28;20977;-88
2022/02/07 14:00:21;;;;;;;17.17;9.87;;;23.20;64.00;;;;;;5035810;28;20198;-89
2022/02/07 14:02:48;;;;;;;12.23;11.03;;;23.20;64.00;;;;;;5035381;28;20500;-89
2022/02/07 14:05:15;;;;;;;12.37;9.70;;;23.30;64.10;;;;;;5035702;28;20459;-90
2022/02/07 14:07:54;;;;;;;12.93;10.77;;;23.30;63.90;;;;;;5035437;28;20487;-89
2022/02/07 14:10:23;;;;;;;12.23;10.47;;;23.30;63.90;;;;;;5035806;28;20522;-89
2022/02/07 14:12:52;;;;;;;11.80;9.53;;;23.30;64.00;;;;;;5035628;28;20455;-89
2022/02/07 14:15:19;;;;;;;18.67;11.07;;;23.30;64.00;;;;;;5035125;28;20455;-89
2022/02/07 14:17:47;;;;;;;11.27;9.70;;;23.30;64.00;;;;;;5034983;28;20455;-87
2022/02/07 14:20:19;;;;;;;16.35;9.68;;;23.30;64.20;;;;;;5036256;28;20443;-90
2022/02/07 14:22:46;;;;;;;10.30;8.20;;;23.30;64.50;;;;;;5035037;28;20197;-90
2022/02/07 14:25:14;;;;;;;9.80;8.80;;;23.40;64.50;;;;;;5033644;28;20455;-89
2022/02/07 14:27:41;;;;;;;12.17;8.60;;;23.40;64.30;;;;;;5053115;28;20485;-87
2022/02/07 14:30:10;;;;;;;12.37;8.83;;;23.40;64.40;;;;;;5055294;28;20449;-82
2022/02/07 14:32:37;;;;;;;12.80;7.83;;;23.30;64.30;;;;;;5054710;28;20486;-85
2022/02/07 14:35:05;;;;;;;10.27;9.23;;;23.40;64.40;;;;;;5053933;28;20472;-85
2022/02/07 14:37:32;;;;;;;12.50;9.87;;;23.40;64.20;;;;;;5052898;28;20472;-84
2022/02/07 14:39:58;;;;;;;12.83;9.20;;;23.50;64.50;;;;;;5054149;28;20437;-85
2022/02/07 14:42:25;;;;;;;15.73;8.77;;;23.40;64.30;;;;;;5054126;28;20441;-84
2022/02/07 14:45:02;;;;;;;10.83;9.27;;;23.50;65.20;;;;;;5054196;28;20441;-85
2022/02/07 14:47:42;;;;;;;11.80;10.55;;;23.50;64.50;;;;;;5054185;28;20567;-84
2022/02/07 14:50:10;;;;;;;11.30;10.40;;;23.50;64.50;;;;;;5054633;28;20195;-85
2022/02/07 14:52:37;;;;;;;10.23;9.20;;;23.50;64.40;;;;;;5054398;28;20442;-85
2022/02/07 14:55:05;;;;;;;12.23;9.87;;;23.50;64.30;;;;;;5054508;28;20449;-84
2022/02/07 14:57:32;;;;;;;11.33;9.33;;;23.50;64.30;;;;;;5054568;28;20434;-85
2022/02/07 14:59:59;;;;;;;14.30;8.53;;;23.50;64.30;;;;;;5054472;28;20770;-85
2022/02/07 15:02:26;;;;;;;10.77;9.23;;;23.50;64.30;;;;;;5054396;28;20453;-85
2022/02/07 15:04:54;;;;;;;11.70;8.90;;;23.50;65.10;;;;;;5054276;28;20458;-85
2022/02/07 15:07:21;;;;;;;10.07;9.17;;;23.50;64.10;;;;;;5053918;28;20491;-85
2022/02/07 15:09:48;;;;;;;9.50;8.70;;;23.60;64.10;;;;;;5053612;28;20936;-85
2022/02/07 15:12:15;;;;;;;10.10;8.43;;;23.60;64.10;;;;;;5052656;28;20203;-83
2022/02/07 15:14:49;;;;;;;9.03;8.10;;;23.60;64.10;;;;;;5053074;28;20448;-82
2022/02/07 15:17:16;;;;;;;8.02;7.28;;;23.60;64.00;;;;;;5054036;28;20441;-92
2022/02/07 15:19:43;;;;;;;8.37;7.57;;;23.60;64.10;;;;;;5054005;28;20195;-87
2022/02/07 15:22:12;;;;;;;10.20;7.90;;;23.60;64.10;;;;;;5053969;28;20439;-87
2022/02/07 15:24:39;;;;;;;9.40;8.20;;;23.50;64.00;;;;;;5053923;28;20442;-88
2022/02/07 15:27:09;;;;;;;8.00;7.20;;;23.60;64.20;;;;;;5055060;28;20491;-84
2022/02/07 15:29:36;;;;;;;11.37;6.93;;;23.50;64.10;;;;;;5054391;28;20442;-83
2022/02/07 15:32:21;;;;;;;8.40;7.47;;;23.50;64.10;;;;;;5053762;28;20484;-83
2022/02/07 15:34:49;;;;;;;7.50;6.90;;;23.50;64.00;;;;;;5053642;28;20965;-83
2022/02/07 15:37:17;;;;;;;9.65;7.47;;;23.50;64.00;;;;;;5053539;28;20441;-82
2022/02/07 15:39:44;;;;;;;8.13;7.37;;;23.50;64.10;;;;;;5053585;28;20202;-82
2022/02/07 15:42:11;;;;;;;8.73;6.50;;;23.50;64.10;;;;;;5053893;28;20817;-88
2022/02/07 15:44:37;;;;;;;8.30;7.57;;;23.50;64.10;;;;;;5053897;28;20439;-87
2022/02/07 15:47:05;;;;;;;7.57;6.77;;;23.50;64.20;;;;;;5053168;28;20496;-82
2022/02/07 15:49:33;;;;;;;6.80;6.20;;;23.50;64.30;;;;;;5053027;28;20470;-81
2022/02/07 15:52:01;;;;;;;5.00;4.10;;;23.40;63.80;;;;;;5053877;28;20450;-82
2022/02/07 15:54:34;;;;;;;5.07;4.00;;;23.40;62.60;;;;;;5051414;28;20458;-83
2022/02/07 15:57:01;;;;;;;5.50;4.60;;;23.40;62.40;;;;;;5051209;28;20450;-82
2022/02/07 15:59:28;;;;;;;7.23;5.70;;;23.40;63.20;;;;;;5052296;28;20998;-82
2022/02/07 16:01:55;;;;;;;6.53;5.63;;;23.40;63.50;;;;;;5052569;28;20445;-82
2022/02/07 16:04:22;;;;;;;6.20;4.70;;;23.40;63.70;;;;;;5046816;28;20212;-82
2022/02/07 16:06:49;;;;;;;7.17;5.77;;;23.50;64.00;;;;;;5042483;28;20470;-82
2022/02/07 16:09:16;;;;;;;8.10;5.73;;;23.50;64.20;;;;;;5041081;28;20439;-82
2022/02/07 16:11:44;;;;;;;5.67;5.10;;;23.50;64.40;;;;;;5041080;28;20483;-81
2022/02/07 16:14:12;;;;;;;7.70;4.97;;;23.40;65.20;;;;;;5043444;28;21016;-82
2022/02/07 16:16:38;;;;;;;5.45;4.93;;;23.40;64.00;;;;;;5042113;28;20912;-83
2022/02/07 16:19:05;;;;;;;5.00;4.60;;;23.50;64.20;;;;;;5039956;28;20188;-82
2022/02/07 16:21:32;;;;;;;5.87;5.27;;;23.50;64.30;;;;;;5040731;28;20435;-82
2022/02/07 16:23:59;;;;;;;5.13;4.10;;;23.50;64.40;;;;;;5042058;28;20785;-83
2022/02/07 16:26:26;;;;;;;6.13;4.73;;;23.50;64.40;;;;;;5033219;28;20452;-83
2022/02/07 16:28:55;;;;;;;5.70;4.90;;;23.50;64.10;;;;;;5037590;28;20487;-82
2022/02/07 16:31:22;;;;;;;8.00;4.10;;;23.50;64.40;;;;;;5038932;28;20435;-82
2022/02/07 16:33:48;;;;;;;5.20;4.80;;;23.50;64.50;;;;;;5041804;28;20469;-82
2022/02/07 16:36:16;;;;;;;6.53;4.20;;;23.50;64.50;;;;;;5040423;28;20458;-82
2022/02/07 16:38:44;;;;;;;4.70;4.30;;;23.50;64.40;;;;;;5038777;28;20483;-83
2022/02/07 16:41:12;;;;;;;5.87;5.17;;;23.50;64.20;;;;;;5041993;28;20554;-83
2022/02/07 16:43:41;;;;;;;6.57;6.00;;;23.50;64.40;;;;;;5043191;28;20435;-82
2022/02/07 16:46:29;;;;;;;5.50;5.10;;;23.50;64.40;;;;;;5045148;28;20438;-82
2022/02/07 16:48:56;;;;;;;5.80;4.70;;;23.50;64.50;;;;;;5047250;28;20479;-82
2022/02/07 16:51:23;;;;;;;5.33;4.83;;;23.50;64.50;;;;;;5047899;28;20940;-82
2022/02/07 16:53:49;;;;;;;5.70;4.90;;;23.50;64.50;;;;;;5045754;28;20809;-82
2022/02/07 16:56:17;;;;;;;6.23;5.70;;;23.50;64.30;;;;;;5041750;28;20435;-83
2022/02/07 16:58:45;;;;;;;7.23;5.20;;;23.50;64.60;;;;;;5047083;28;20443;-82
2022/02/07 17:01:13;;;;;;;7.23;5.73;;;23.50;65.10;;;;;;5049733;28;20450;-82
2022/02/07 17:03:41;;;;;;;5.77;5.27;;;23.50;65.00;;;;;;5049871;28;20442;-82
2022/02/07 17:06:08;;;;;;;6.27;5.30;;;23.40;65.00;;;;;;5041244;28;20454;-82
2022/02/07 17:08:35;;;;;;;4.57;4.20;;;23.50;65.00;;;;;;5046426;28;20487;-82
2022/02/07 17:11:04;;;;;;;4.70;4.30;;;23.50;65.10;;;;;;5050188;28;20549;-82
2022/02/07 17:13:32;;;;;;;6.20;5.00;;;23.50;65.10;;;;;;5049913;28;20490;-82
2022/02/07 17:15:59;;;;;;;7.90;5.53;;;23.50;65.40;;;;;;5042704;28;20244;-82
2022/02/07 17:18:27;;;;;;;6.47;5.13;;;23.50;65.50;;;;;;5043737;28;20442;-82
2022/02/07 17:20:54;;;;;;;4.60;4.30;;;23.50;65.40;;;;;;5038504;28;20438;-83
2022/02/07 17:23:22;;;;;;;5.20;4.23;;;23.70;65.20;;;;;;5035872;28;20197;-83
2022/02/07 17:25:49;;;;;;;4.40;4.10;;;23.60;64.80;;;;;;5035915;28;20860;-83
2022/02/07 17:28:16;;;;;;;5.68;4.22;;;23.60;64.90;;;;;;5036151;28;20489;-83
2022/02/07 17:30:45;;;;;;;5.57;4.43;;;23.60;65.20;;;;;;5036596;28;20201;-83
2022/02/07 17:33:12;;;;;;;4.55;4.10;;;23.60;65.10;;;;;;5036201;28;20976;-83
2022/02/07 17:35:40;;;;;;;4.33;4.03;;;23.60;65.10;;;;;;5036205;28;20217;-83
2022/02/07 17:38:07;;;;;;;4.37;3.97;;;23.50;64.80;;;;;;5036366;28;20440;-83
2022/02/07 17:40:34;;;;;;;4.13;3.73;;;23.50;64.80;;;;;;5036173;28;20445;-83
2022/02/07 17:43:02;;;;;;;4.70;4.30;;;23.50;64.80;;;;;;5036246;28;20443;-83
2022/02/07 17:45:31;;;;;;;3.97;3.63;;;23.50;64.80;;;;;;5046634;28;20928;-83
2022/02/07 17:47:58;;;;;;;3.93;3.53;;;23.50;64.70;;;;;;5043068;28;20479;-83
2022/02/07 17:50:25;;;;;;;4.10;3.70;;;23.50;64.80;;;;;;5044144;28;20443;-83
2022/02/07 17:52:53;;;;;;;4.13;3.73;;;23.50;64.70;;;;;;5042682;28;20438;-82
2022/02/07 17:55:20;;;;;;;4.13;3.78;;;23.50;64.70;;;;;;5042934;28;20456;-82
2022/02/07 17:57:48;;;;;;;3.50;3.20;;;23.40;64.60;;;;;;5043273;28;20197;-82
2022/02/07 18:00:16;;;;;;;3.87;3.50;;;23.50;64.70;;;;;;5043469;28;20426;-83
2022/02/07 18:02:43;;;;;;;4.40;4.00;;;23.50;64.60;;;;;;5044915;28;20439;-82
2022/02/07 18:05:15;;;;;;;4.17;3.77;;;23.50;64.60;;;;;;5042420;28;20798;-82
2022/02/07 18:07:43;;;;;;;3.63;3.33;;;23.40;64.40;;;;;;5048060;28;20478;-82
2022/02/07 18:10:13;;;;;;;3.77;3.40;;;23.40;64.30;;;;;;5042887;28;20448;-82
2022/02/07 18:12:41;;;;;;;3.03;2.73;;;23.40;64.30;;;;;;5037272;28;20476;-90
2022/02/07 18:15:09;;;;;;;5.10;3.83;;;23.40;64.00;;;;;;5035762;28;20823;-84
2022/02/07 18:17:36;;;;;;;3.17;2.87;;;23.40;63.80;;;;;;5035646;28;20952;-84
2022/02/07 18:20:16;;;;;;;3.43;3.13;;;23.50;63.60;;;;;;5035643;28;20447;-87
2022/02/07 18:22:48;;;;;;;3.97;3.17;;;23.50;63.60;;;;;;5034387;28;20440;-83
2022/02/07 18:25:17;;;;;;;3.00;2.70;;;23.50;63.60;;;;;;5035082;28;20448;-83
2022/02/07 18:27:44;;;;;;;3.20;2.93;;;23.50;63.60;;;;;;5034994;28;20493;-83
2022/02/07 18:30:14;;;;;;;2.73;2.53;;;23.50;63.80;;;;;;5035675;28;20752;-82
2022/02/07 18:32:42;;;;;;;2.93;2.73;;;23.60;63.70;;;;;;5035278;28;20474;-84
2022/02/07 18:35:10;;;;;;;5.03;3.20;;;23.50;63.70;;;;;;5035183;28;20519;-84
2022/02/07 18:37:39;;;;;;;3.28;2.50;;;23.50;63.80;;;;;;5035639;28;20450;-84
2022/02/07 18:40:10;;;;;;;7.43;2.78;;;23.60;64.10;;;;;;5035408;28;20565;-83
2022/02/07 18:42:39;;;;;;;3.67;3.33;;;23.50;63.90;;;;;;5035074;28;20723;-83
2022/02/07 18:45:11;;;;;;;2.67;2.47;;;23.50;63.90;;;;;;5035067;28;20440;-83
2022/02/07 18:47:38;;;;;;;3.50;3.00;;;23.50;63.90;;;;;;5034980;28;20522;-84
2022/02/07 18:50:06;;;;;;;3.03;2.40;;;23.50;63.90;;;;;;5035008;28;20459;-86
2022/02/07 18:52:33;;;;;;;3.00;2.57;;;23.60;64.00;;;;;;5034861;28;20434;-83
2022/02/07 18:55:00;;;;;;;4.88;2.78;;;23.50;63.70;;;;;;5034998;28;20450;-83
2022/02/07 18:57:31;;;;;;;2.30;2.10;;;23.60;63.80;;;;;;5034826;28;20196;-83
2022/02/07 19:00:06;;;;;;;3.87;2.93;;;23.60;64.50;;;;;;5034990;28;20882;-82
2022/02/07 19:02:44;;;;;;;2.93;2.43;;;23.60;63.70;;;;;;5034742;28;20446;-83
2022/02/07 19:05:27;;;;;;;5.03;2.70;;;23.60;63.70;;;;;;5034531;28;20468;-84
2022/02/07 19:07:54;;;;;;;5.40;2.60;;;23.60;63.60;;;;;;5034658;28;20568;-83
2022/02/07 19:10:20;;;;;;;3.37;2.70;;;23.60;63.80;;;;;;5033834;28;20829;-84
2022/02/07 19:12:48;;;;;;;4.60;2.37;;;23.50;63.70;;;;;;5034505;28;20452;-84
2022/02/07 19:15:17;;;;;;;4.60;2.63;;;23.50;63.80;;;;;;5034577;28;20452;-84
2022/02/07 19:17:45;;;;;;;2.43;1.97;;;23.50;63.70;;;;;;5034540;28;20456;-84
2022/02/07 19:20:16;;;;;;;2.10;2.00;;;23.50;63.60;;;;;;5034450;28;20455;-84
2022/02/07 19:22:46;;;;;;;3.27;2.10;;;23.50;63.60;;;;;;5034418;28;20494;-83
2022/02/07 19:25:24;;;;;;;3.33;2.40;;;23.50;63.70;;;;;;5034665;28;20791;-83
2022/02/07 19:27:57;;;;;;;2.97;2.47;;;23.50;64.50;;;;;;5033988;28;20512;-83
2022/02/07 19:30:26;;;;;;;2.57;2.23;;;23.50;63.70;;;;;;5034091;28;20449;-83
2022/02/07 19:32:56;;;;;;;3.33;2.30;;;23.50;63.70;;;;;;5034075;28;20908;-83
2022/02/07 19:35:28;;;;;;;2.13;1.93;;;23.50;63.70;;;;;;5034376;28;20471;-84
2022/02/07 19:37:55;;;;;;;2.27;2.07;;;23.50;63.70;;;;;;5034069;28;20536;-84
2022/02/07 19:40:23;;;;;;;2.80;2.40;;;23.40;63.50;;;;;;5034055;28;20447;-84
2022/02/07 19:42:54;;;;;;;8.80;2.57;;;23.40;63.60;;;;;;5033930;28;20547;-84
2022/02/07 19:45:29;;;;;;;2.90;2.53;;;23.50;63.70;;;;;;5034285;28;20530;-86
2022/02/07 19:47:58;;;;;;;2.80;2.50;;;23.50;63.60;;;;;;5033999;28;20481;-84
2022/02/07 19:50:26;;;;;;;2.77;2.50;;;23.50;63.60;;;;;;5033941;28;20451;-87
2022/02/07 19:52:53;;;;;;;3.50;2.30;;;23.50;63.70;;;;;;5033941;28;20443;-84
2022/02/07 19:55:21;;;;;;;2.57;2.27;;;23.50;63.70;;;;;;5033431;28;20451;-84
2022/02/07 19:57:49;;;;;;;2.97;2.63;;;23.50;63.80;;;;;;5033834;28;20472;-85
2022/02/07 20:00:17;;;;;;;2.67;2.47;;;23.50;63.70;;;;;;5034336;28;20440;-84
2022/02/07 20:02:45;;;;;;;3.13;2.80;;;23.50;63.70;;;;;;5033725;28;20843;-84
2022/02/07 20:05:16;;;;;;;2.50;2.23;;;23.50;63.80;;;;;;5033633;28;20485;-84
2022/02/07 20:07:43;;;;;;;2.37;2.17;;;23.50;63.80;;;;;;5033474;28;20483;-85
2022/02/07 20:10:11;;;;;;;4.10;2.53;;;23.50;63.80;;;;;;5033447;28;20464;-85
2022/02/07 20:12:40;;;;;;;2.60;2.40;;;23.50;63.80;;;;;;5033997;28;20995;-83
2022/02/07 20:15:09;;;;;;;4.90;3.13;;;23.50;63.80;;;;;;5033927;28;20453;-82
2022/02/07 20:17:37;;;;;;;3.40;3.00;;;23.50;63.80;;;;;;5033473;28;20452;-82
2022/02/07 20:20:06;;;;;;;5.43;2.53;;;23.50;63.80;;;;;;5033235;28;20497;-82
2022/02/07 20:22:35;;;;;;;2.93;2.73;;;23.50;63.70;;;;;;5033488;28;20441;-82
2022/02/07 20:25:02;;;;;;;2.53;2.33;;;23.50;63.50;;;;;;5033439;28;20934;-83
2022/02/07 20:27:29;;;;;;;2.70;2.50;;;23.60;63.50;;;;;;5033562;28;20496;-83
2022/02/07 20:29:56;;;;;;;3.10;2.50;;;23.60;63.50;;;;;;5033409;28;20487;-82
2022/02/07 20:32:25;;;;;;;2.87;2.67;;;23.60;63.50;;;;;;5033177;28;20471;-82
2022/02/07 20:34:54;;;;;;;2.93;2.63;;;23.60;63.50;;;;;;5033569;28;20588;-82
2022/02/07 20:37:22;;;;;;;2.60;2.40;;;23.60;63.40;;;;;;5033382;28;20436;-83
2022/02/07 20:39:50;;;;;;;2.40;2.20;;;23.60;63.30;;;;;;5033548;28;20870;-84
2022/02/07 20:42:17;;;;;;;2.63;2.43;;;23.60;63.30;;;;;;5033209;28;20932;-84
2022/02/07 20:44:44;;;;;;;2.40;2.20;;;23.60;63.40;;;;;;5033176;28;20440;-82
2022/02/07 20:47:17;;;;;;;3.87;2.63;;;23.60;63.30;;;;;;5033232;28;20811;-87
2022/02/07 20:49:44;;;;;;;3.70;2.57;;;23.60;63.30;;;;;;5033052;28;20495;-82
2022/02/07 20:52:12;;;;;;;2.47;2.30;;;23.60;63.30;;;;;;5033127;28;20436;-83
2022/02/07 20:54:39;;;;;;;2.30;2.10;;;23.60;63.30;;;;;;5033255;28;20447;-86
2022/02/07 20:57:08;;;;;;;1.98;1.83;;;23.60;63.20;;;;;;5033186;28;20449;-87
2022/02/07 20:59:35;;;;;;;2.20;2.00;;;23.70;63.30;;;;;;5033214;28;20558;-87
2022/02/07 21:02:02;;;;;;;3.77;2.20;;;23.60;63.10;;;;;;5032996;28;20448;-87
2022/02/07 21:04:35;;;;;;;2.50;2.00;;;23.70;63.20;;;;;;5032837;28;20502;-83
2022/02/07 21:07:09;;;;;;;2.80;2.60;;;23.60;63.00;;;;;;5033090;28;20926;-83
2022/02/07 21:09:37;;;;;;;3.10;2.40;;;23.70;63.10;;;;;;5033056;28;20569;-88
2022/02/07 21:12:07;;;;;;;2.47;2.20;;;23.70;63.10;;;;;;5033206;28;20445;-88
2022/02/07 21:14:34;;;;;;;2.20;2.00;;;23.70;63.20;;;;;;5033364;28;20443;-83
2022/02/07 21:17:01;;;;;;;2.10;1.90;;;23.70;63.20;;;;;;5032984;28;20806;-84
2022/02/07 21:19:32;;;;;;;2.80;2.37;;;23.70;63.10;;;;;;5032714;28;20980;-83
2022/02/07 21:21:59;;;;;;;2.57;1.80;;;23.70;63.20;;;;;;5033348;28;20777;-82
2022/02/07 21:24:26;;;;;;;2.03;1.83;;;23.70;63.10;;;;;;5032898;28;20453;-83
2022/02/07 21:26:53;;;;;;;2.13;1.70;;;23.70;63.30;;;;;;5033572;28;20441;-83
2022/02/07 21:29:22;;;;;;;1.87;1.67;;;23.70;63.30;;;;;;5032537;28;20488;-83
2022/02/07 21:31:49;;;;;;;1.80;1.70;;;23.70;63.30;;;;;;5032678;28;20449;-82
2022/02/07 21:34:16;;;;;;;2.73;1.57;;;23.70;63.20;;;;;;5036243;28;20471;-82
2022/02/07 21:36:47;;;;;;;2.03;1.93;;;23.70;63.00;;;;;;5036630;28;20451;-82
2022/02/07 21:39:15;;;;;;;2.17;1.77;;;23.70;62.90;;;;;;5036532;28;20442;-82
2022/02/07 21:41:41;;;;;;;2.53;2.03;;;23.70;62.90;;;;;;5036262;28;20826;-82
2022/02/07 21:44:10;;;;;;;1.90;1.80;;;23.60;62.80;;;;;;5036261;28;20445;-82
2022/02/07 21:46:40;;;;;;;2.07;1.50;;;23.70;62.90;;;;;;5036329;28;20929;-89
2022/02/07 21:49:09;;;;;;;1.98;1.80;;;23.70;62.80;;;;;;5036110;28;20488;-89
2022/02/07 21:51:36;;;;;;;1.95;1.75;;;23.70;62.70;;;;;;5036222;28;20200;-90
2022/02/07 21:54:03;;;;;;;3.23;2.00;;;23.70;62.60;;;;;;5036062;28;20211;-90